Wind Of Change — PG7534 — position and weather

sailwx.info

Track history (hours):
 
Tides and Currents Weather Stations Pressure Air Temp Water Temp Dewpoint Dewpoint Depression Visibility Wind Speed Wind Dir Waves Ship Positions

Wind Of Change

Last reported at 2017-Oct-09 11:04 UTC. Time now 2017-Oct-22 10:24 UTC.
Position N 37°06' E 025°22'.
Warning: this ship's position is 12 days out of date.

Length 12 m.

Type: Sailing vessel. MMSI: 244820989.

Date/timePositionNaut miles runAvg speedWind from/ knotsBaromVisibWave heightAir tempDewpointWater temp
2017-Oct-09 11:04N 37°06' E 025°22'0 0.1
2017-Oct-09 10:59N 37°06' E 025°22'0 0.4
2017-Oct-09 10:30N 37°06' E 025°22'2 3.6
2017-Oct-09 10:00N 37°07' E 025°21'2 4.5
2017-Oct-09 09:30N 37°09' E 025°19'2 3.5
2017-Oct-09 09:00N 37°09' E 025°16'  
2017-Oct-05 13:02N 37°08' E 025°14'0 5.6
2017-Oct-05 13:00N 37°08' E 025°14'1 1.6
2017-Oct-05 12:30N 37°08' E 025°14'3 4.6
2017-Oct-05 11:57N 37°10' E 025°12'4 4.5
2017-Oct-05 11:00N 37°12' E 025°07'2 3.8
2017-Oct-05 10:30N 37°13' E 025°05'2 4.7
2017-Oct-05 10:00N 37°14' E 025°02'2 3.8
2017-Oct-05 09:30N 37°15' E 024°60'2 5.1
2017-Oct-05 09:00N 37°17' E 024°58'3 5.3
2017-Oct-05 08:30N 37°19' E 024°56'2 4.7
2017-Oct-05 08:00N 37°21' E 024°54'3 6.2
2017-Oct-05 07:30N 37°24' E 024°53'0 0.5
2017-Oct-05 06:59N 37°24' E 024°53'0 0.0
2017-Oct-05 06:30N 37°24' E 024°53'  
2017-Oct-02 14:25N 37°24' E 024°53'1 2.3
2017-Oct-02 14:00N 37°23' E 024°51'3 5.7
2017-Oct-02 13:30N 37°26' E 024°49'3 6.7
2017-Oct-02 13:00N 37°28' E 024°47'47 1.7
2017-Oct-01 09:23N 37°44' E 023°51'2 5.6
2017-Oct-01 08:57N 37°46' E 023°48'3 6.6
2017-Oct-01 08:30N 37°48' E 023°46'3 6.7
2017-Oct-01 08:00N 37°51' E 023°44'  
Track history (hours):
 
Tides and Currents Weather Stations Pressure Air Temp Water Temp Dewpoint Dewpoint Depression Visibility Wind Speed Wind Dir Waves Ship Positions

Wind Of Change

Last reported at 2017-Oct-09 11:04 UTC. Time now 2017-Oct-22 10:24 UTC.
Position N 37°06' E 025°22'.
Warning: this ship's position is 12 days out of date.

Length 12 m.

Type: Sailing vessel. MMSI: 244820989.

Date/timePositionNaut miles runAvg speedWind from/ knotsBaromVisibWave heightAir tempDewpointWater temp
2017-Oct-09 11:04N 37°06' E 025°22'0 0.1
2017-Oct-09 10:59N 37°06' E 025°22'0 0.4
2017-Oct-09 10:30N 37°06' E 025°22'2 3.6
2017-Oct-09 10:00N 37°07' E 025°21'2 4.5
2017-Oct-09 09:30N 37°09' E 025°19'2 3.5
2017-Oct-09 09:00N 37°09' E 025°16'  
2017-Oct-05 13:02N 37°08' E 025°14'0 5.6
2017-Oct-05 13:00N 37°08' E 025°14'1 1.6
2017-Oct-05 12:30N 37°08' E 025°14'3 4.6
2017-Oct-05 11:57N 37°10' E 025°12'4 4.5
2017-Oct-05 11:00N 37°12' E 025°07'2 3.8
2017-Oct-05 10:30N 37°13' E 025°05'2 4.7
2017-Oct-05 10:00N 37°14' E 025°02'2 3.8
2017-Oct-05 09:30N 37°15' E 024°60'2 5.1
2017-Oct-05 09:00N 37°17' E 024°58'3 5.3
2017-Oct-05 08:30N 37°19' E 024°56'2 4.7
2017-Oct-05 08:00N 37°21' E 024°54'3 6.2
2017-Oct-05 07:30N 37°24' E 024°53'0 0.5
2017-Oct-05 06:59N 37°24' E 024°53'0 0.0
2017-Oct-05 06:30N 37°24' E 024°53'  
2017-Oct-02 14:25N 37°24' E 024°53'1 2.3
2017-Oct-02 14:00N 37°23' E 024°51'3 5.7
2017-Oct-02 13:30N 37°26' E 024°49'3 6.7
2017-Oct-02 13:00N 37°28' E 024°47'47 1.7
2017-Oct-01 09:23N 37°44' E 023°51'2 5.6
2017-Oct-01 08:57N 37°46' E 023°48'3 6.6
2017-Oct-01 08:30N 37°48' E 023°46'3 6.7
2017-Oct-01 08:00N 37°51' E 023°44'  

Dump ship's entire track history